sensor_id;sensor_type;location;lat;lon;timestamp;P1;durP1;ratioP1;P2;durP2;ratioP2
75209;SDS011;63796;53.136;14.882;2024-02-15T00:00:18;8.50;;;4.00;;
75209;SDS011;63796;53.136;14.882;2024-02-15T00:03:26;6.40;;;4.30;;
75209;SDS011;63796;53.136;14.882;2024-02-15T00:06:33;7.40;;;4.70;;
75209;SDS011;63796;53.136;14.882;2024-02-15T00:09:40;7.60;;;5.00;;
75209;SDS011;63796;53.136;14.882;2024-02-15T00:12:48;7.30;;;5.00;;
75209;SDS011;63796;53.136;14.882;2024-02-15T00:15:55;8.90;;;4.80;;
75209;SDS011;63796;53.136;14.882;2024-02-15T00:19:02;6.60;;;5.00;;
75209;SDS011;63796;53.136;14.882;2024-02-15T00:22:12;9.30;;;5.00;;
75209;SDS011;63796;53.136;14.882;2024-02-15T00:25:19;7.90;;;5.30;;
75209;SDS011;63796;53.136;14.882;2024-02-15T00:28:27;7.70;;;5.20;;
75209;SDS011;63796;53.136;14.882;2024-02-15T00:30:55;8.80;;;5.60;;
75209;SDS011;63796;53.136;14.882;2024-02-15T00:33:22;9.40;;;5.70;;
75209;SDS011;63796;53.136;14.882;2024-02-15T00:35:51;7.80;;;5.10;;
75209;SDS011;63796;53.136;14.882;2024-02-15T00:38:19;7.70;;;5.00;;
75209;SDS011;63796;53.136;14.882;2024-02-15T00:40:47;7.20;;;5.50;;
75209;SDS011;63796;53.136;14.882;2024-02-15T00:43:16;8.10;;;5.00;;
75209;SDS011;63796;53.136;14.882;2024-02-15T00:45:44;8.70;;;5.20;;
75209;SDS011;63796;53.136;14.882;2024-02-15T00:48:12;6.30;;;4.90;;
75209;SDS011;63796;53.136;14.882;2024-02-15T00:51:22;7.00;;;5.40;;
75209;SDS011;63796;53.136;14.882;2024-02-15T00:54:29;10.10;;;5.50;;
75209;SDS011;63796;53.136;14.882;2024-02-15T00:57:37;7.40;;;4.90;;
75209;SDS011;63796;53.136;14.882;2024-02-15T01:00:44;6.80;;;4.80;;
75209;SDS011;63796;53.136;14.882;2024-02-15T01:03:54;11.00;;;5.10;;
75209;SDS011;63796;53.136;14.882;2024-02-15T01:07:01;8.50;;;5.40;;
75209;SDS011;63796;53.136;14.882;2024-02-15T01:10:09;6.60;;;4.90;;
75209;SDS011;63796;53.136;14.882;2024-02-15T01:13:16;6.30;;;4.40;;
75209;SDS011;63796;53.136;14.882;2024-02-15T01:16:23;7.00;;;4.80;;
75209;SDS011;63796;53.136;14.882;2024-02-15T01:19:31;6.30;;;4.90;;
75209;SDS011;63796;53.136;14.882;2024-02-15T01:22:38;6.50;;;5.20;;
75209;SDS011;63796;53.136;14.882;2024-02-15T01:25:45;6.90;;;5.20;;
75209;SDS011;63796;53.136;14.882;2024-02-15T01:28:53;10.90;;;5.90;;
75209;SDS011;63796;53.136;14.882;2024-02-15T01:32:00;6.90;;;5.70;;
75209;SDS011;63796;53.136;14.882;2024-02-15T01:35:08;7.40;;;5.40;;
75209;SDS011;63796;53.136;14.882;2024-02-15T01:38:15;7.00;;;5.50;;
75209;SDS011;63796;53.136;14.882;2024-02-15T01:41:25;10.70;;;5.30;;
75209;SDS011;63796;53.136;14.882;2024-02-15T01:44:32;6.60;;;5.00;;
75209;SDS011;63796;53.136;14.882;2024-02-15T01:47:41;9.10;;;4.60;;
75209;SDS011;63796;53.136;14.882;2024-02-15T01:50:48;8.00;;;5.40;;
75209;SDS011;63796;53.136;14.882;2024-02-15T01:53:56;6.30;;;5.00;;
75209;SDS011;63796;53.136;14.882;2024-02-15T01:57:03;6.60;;;4.80;;
75209;SDS011;63796;53.136;14.882;2024-02-15T02:00:11;8.50;;;4.80;;
75209;SDS011;63796;53.136;14.882;2024-02-15T02:02:57;7.60;;;5.10;;
75209;SDS011;63796;53.136;14.882;2024-02-15T02:05:32;7.90;;;5.40;;
75209;SDS011;63796;53.136;14.882;2024-02-15T02:08:13;6.70;;;5.00;;
75209;SDS011;63796;53.136;14.882;2024-02-15T02:10:41;6.10;;;4.40;;
75209;SDS011;63796;53.136;14.882;2024-02-15T02:13:49;5.20;;;4.50;;
75209;SDS011;63796;53.136;14.882;2024-02-15T02:17:10;6.70;;;4.20;;
75209;SDS011;63796;53.136;14.882;2024-02-15T02:20:17;5.80;;;4.20;;
75209;SDS011;63796;53.136;14.882;2024-02-15T02:23:26;7.30;;;4.80;;
75209;SDS011;63796;53.136;14.882;2024-02-15T02:26:34;4.80;;;4.00;;
75209;SDS011;63796;53.136;14.882;2024-02-15T02:29:44;7.10;;;4.70;;
75209;SDS011;63796;53.136;14.882;2024-02-15T02:32:51;10.70;;;4.20;;
75209;SDS011;63796;53.136;14.882;2024-02-15T02:35:59;7.10;;;5.10;;
75209;SDS011;63796;53.136;14.882;2024-02-15T02:39:06;8.70;;;5.10;;
75209;SDS011;63796;53.136;14.882;2024-02-15T02:41:35;7.30;;;5.20;;
75209;SDS011;63796;53.136;14.882;2024-02-15T02:44:42;8.00;;;5.20;;
75209;SDS011;63796;53.136;14.882;2024-02-15T02:47:50;9.10;;;5.30;;
75209;SDS011;63796;53.136;14.882;2024-02-15T02:50:57;7.00;;;5.40;;
75209;SDS011;63796;53.136;14.882;2024-02-15T02:54:05;6.40;;;5.10;;
75209;SDS011;63796;53.136;14.882;2024-02-15T02:57:12;7.00;;;5.50;;
75209;SDS011;63796;53.136;14.882;2024-02-15T03:00:20;7.20;;;5.50;;
75209;SDS011;63796;53.136;14.882;2024-02-15T03:03:27;9.10;;;5.50;;
75209;SDS011;63796;53.136;14.882;2024-02-15T03:06:35;10.20;;;5.70;;
75209;SDS011;63796;53.136;14.882;2024-02-15T03:09:42;11.60;;;5.90;;
75209;SDS011;63796;53.136;14.882;2024-02-15T03:12:49;6.70;;;5.40;;
75209;SDS011;63796;53.136;14.882;2024-02-15T03:15:56;10.40;;;5.60;;
75209;SDS011;63796;53.136;14.882;2024-02-15T03:19:04;7.60;;;5.70;;
75209;SDS011;63796;53.136;14.882;2024-02-15T03:22:11;9.40;;;6.60;;
75209;SDS011;63796;53.136;14.882;2024-02-15T03:25:19;9.90;;;6.10;;
75209;SDS011;63796;53.136;14.882;2024-02-15T03:28:26;10.70;;;6.10;;
75209;SDS011;63796;53.136;14.882;2024-02-15T03:31:34;10.90;;;6.00;;
75209;SDS011;63796;53.136;14.882;2024-02-15T03:34:42;9.40;;;6.00;;
75209;SDS011;63796;53.136;14.882;2024-02-15T03:37:49;9.00;;;6.00;;
75209;SDS011;63796;53.136;14.882;2024-02-15T03:40:57;8.70;;;6.30;;
75209;SDS011;63796;53.136;14.882;2024-02-15T03:44:04;9.70;;;6.70;;
75209;SDS011;63796;53.136;14.882;2024-02-15T03:47:12;10.20;;;6.80;;
75209;SDS011;63796;53.136;14.882;2024-02-15T03:50:19;12.30;;;6.90;;
75209;SDS011;63796;53.136;14.882;2024-02-15T03:53:26;12.60;;;6.80;;
75209;SDS011;63796;53.136;14.882;2024-02-15T03:56:34;13.50;;;7.30;;
75209;SDS011;63796;53.136;14.882;2024-02-15T03:59:41;12.40;;;7.40;;
75209;SDS011;63796;53.136;14.882;2024-02-15T04:02:49;8.50;;;8.10;;
75209;SDS011;63796;53.136;14.882;2024-02-15T04:05:56;12.20;;;7.00;;
75209;SDS011;63796;53.136;14.882;2024-02-15T04:09:04;13.20;;;7.40;;
75209;SDS011;63796;53.136;14.882;2024-02-15T04:12:12;14.70;;;7.70;;
75209;SDS011;63796;53.136;14.882;2024-02-15T04:15:19;13.00;;;7.30;;
75209;SDS011;63796;53.136;14.882;2024-02-15T04:18:27;11.50;;;6.90;;
75209;SDS011;63796;53.136;14.882;2024-02-15T04:21:35;11.60;;;7.70;;
75209;SDS011;63796;53.136;14.882;2024-02-15T04:24:43;12.20;;;8.10;;
75209;SDS011;63796;53.136;14.882;2024-02-15T04:27:51;12.50;;;7.90;;
75209;SDS011;63796;53.136;14.882;2024-02-15T04:30:58;13.80;;;8.30;;
75209;SDS011;63796;53.136;14.882;2024-02-15T04:34:07;15.20;;;8.10;;
75209;SDS011;63796;53.136;14.882;2024-02-15T04:37:15;13.60;;;8.00;;
75209;SDS011;63796;53.136;14.882;2024-02-15T04:40:24;11.60;;;8.20;;
75209;SDS011;63796;53.136;14.882;2024-02-15T04:43:32;15.40;;;8.30;;
75209;SDS011;63796;53.136;14.882;2024-02-15T04:46:40;13.80;;;8.20;;
75209;SDS011;63796;53.136;14.882;2024-02-15T04:49:47;14.30;;;8.30;;
75209;SDS011;63796;53.136;14.882;2024-02-15T04:52:55;15.90;;;7.30;;
75209;SDS011;63796;53.136;14.882;2024-02-15T04:56:02;12.00;;;7.80;;
75209;SDS011;63796;53.136;14.882;2024-02-15T04:59:10;16.20;;;8.00;;
75209;SDS011;63796;53.136;14.882;2024-02-15T05:02:20;15.90;;;8.20;;
75209;SDS011;63796;53.136;14.882;2024-02-15T05:05:29;15.70;;;8.50;;
75209;SDS011;63796;53.136;14.882;2024-02-15T05:08:36;13.40;;;8.50;;
75209;SDS011;63796;53.136;14.882;2024-02-15T05:11:44;15.10;;;8.10;;
75209;SDS011;63796;53.136;14.882;2024-02-15T05:14:54;17.60;;;8.30;;
75209;SDS011;63796;53.136;14.882;2024-02-15T05:18:04;19.30;;;8.40;;
75209;SDS011;63796;53.136;14.882;2024-02-15T05:21:11;16.70;;;8.50;;
75209;SDS011;63796;53.136;14.882;2024-02-15T05:24:19;21.50;;;9.20;;
75209;SDS011;63796;53.136;14.882;2024-02-15T05:27:26;19.90;;;9.40;;
75209;SDS011;63796;53.136;14.882;2024-02-15T05:30:36;16.10;;;9.20;;
75209;SDS011;63796;53.136;14.882;2024-02-15T05:33:46;16.20;;;9.30;;
75209;SDS011;63796;53.136;14.882;2024-02-15T05:36:55;16.40;;;8.60;;
75209;SDS011;63796;53.136;14.882;2024-02-15T05:40:02;19.10;;;9.00;;
75209;SDS011;63796;53.136;14.882;2024-02-15T05:43:10;19.70;;;9.40;;
75209;SDS011;63796;53.136;14.882;2024-02-15T05:46:17;20.70;;;10.30;;
75209;SDS011;63796;53.136;14.882;2024-02-15T05:49:25;22.90;;;10.20;;
75209;SDS011;63796;53.136;14.882;2024-02-15T05:52:32;19.30;;;10.00;;
75209;SDS011;63796;53.136;14.882;2024-02-15T05:55:40;21.60;;;10.20;;
75209;SDS011;63796;53.136;14.882;2024-02-15T05:58:47;18.10;;;9.40;;
75209;SDS011;63796;53.136;14.882;2024-02-15T06:01:55;21.70;;;10.30;;
75209;SDS011;63796;53.136;14.882;2024-02-15T06:05:02;21.30;;;9.40;;
75209;SDS011;63796;53.136;14.882;2024-02-15T06:08:12;27.40;;;9.80;;
75209;SDS011;63796;53.136;14.882;2024-02-15T06:11:19;20.10;;;9.50;;
75209;SDS011;63796;53.136;14.882;2024-02-15T06:14:29;22.00;;;9.70;;
75209;SDS011;63796;53.136;14.882;2024-02-15T06:17:37;22.10;;;10.30;;
75209;SDS011;63796;53.136;14.882;2024-02-15T06:20:47;23.60;;;10.30;;
75209;SDS011;63796;53.136;14.882;2024-02-15T06:23:55;25.60;;;10.00;;
75209;SDS011;63796;53.136;14.882;2024-02-15T06:27:02;19.40;;;9.10;;
75209;SDS011;63796;53.136;14.882;2024-02-15T06:30:11;19.10;;;9.20;;
75209;SDS011;63796;53.136;14.882;2024-02-15T06:33:20;16.70;;;8.90;;
75209;SDS011;63796;53.136;14.882;2024-02-15T06:36:21;22.40;;;9.50;;
75209;SDS011;63796;53.136;14.882;2024-02-15T06:39:46;18.20;;;9.20;;
75209;SDS011;63796;53.136;14.882;2024-02-15T06:43:13;19.50;;;9.10;;
75209;SDS011;63796;53.136;14.882;2024-02-15T06:46:21;22.30;;;9.80;;
75209;SDS011;63796;53.136;14.882;2024-02-15T06:49:28;18.10;;;9.30;;
75209;SDS011;63796;53.136;14.882;2024-02-15T06:52:35;17.80;;;9.20;;
75209;SDS011;63796;53.136;14.882;2024-02-15T06:55:43;19.20;;;9.60;;
75209;SDS011;63796;53.136;14.882;2024-02-15T06:58:50;17.90;;;9.00;;
75209;SDS011;63796;53.136;14.882;2024-02-15T07:01:58;21.30;;;9.60;;
75209;SDS011;63796;53.136;14.882;2024-02-15T07:05:06;19.30;;;7.90;;
75209;SDS011;63796;53.136;14.882;2024-02-15T07:08:14;13.60;;;7.40;;
75209;SDS011;63796;53.136;14.882;2024-02-15T07:11:23;15.90;;;7.70;;
75209;SDS011;63796;53.136;14.882;2024-02-15T07:14:31;17.60;;;8.20;;
75209;SDS011;63796;53.136;14.882;2024-02-15T07:17:39;18.80;;;7.90;;
75209;SDS011;63796;53.136;14.882;2024-02-15T07:20:47;14.20;;;7.60;;
75209;SDS011;63796;53.136;14.882;2024-02-15T07:23:55;12.10;;;6.10;;
75209;SDS011;63796;53.136;14.882;2024-02-15T07:27:03;15.90;;;7.00;;
75209;SDS011;63796;53.136;14.882;2024-02-15T07:29:50;11.10;;;6.30;;
75209;SDS011;63796;53.136;14.882;2024-02-15T07:33:37;13.00;;;6.70;;
75209;SDS011;63796;53.136;14.882;2024-02-15T07:37:25;13.40;;;6.60;;
75209;SDS011;63796;53.136;14.882;2024-02-15T07:41:08;12.20;;;6.40;;
75209;SDS011;63796;53.136;14.882;2024-02-15T07:44:16;10.70;;;5.90;;
75209;SDS011;63796;53.136;14.882;2024-02-15T07:47:23;10.00;;;6.30;;
75209;SDS011;63796;53.136;14.882;2024-02-15T07:50:31;9.80;;;6.30;;
75209;SDS011;63796;53.136;14.882;2024-02-15T07:53:39;9.50;;;5.10;;
75209;SDS011;63796;53.136;14.882;2024-02-15T07:56:47;10.00;;;5.80;;
75209;SDS011;63796;53.136;14.882;2024-02-15T07:59:54;8.90;;;5.90;;
75209;SDS011;63796;53.136;14.882;2024-02-15T08:03:02;7.70;;;5.30;;
75209;SDS011;63796;53.136;14.882;2024-02-15T08:06:13;10.30;;;6.20;;
75209;SDS011;63796;53.136;14.882;2024-02-15T08:09:21;8.50;;;5.00;;
75209;SDS011;63796;53.136;14.882;2024-02-15T08:12:29;8.20;;;5.40;;
75209;SDS011;63796;53.136;14.882;2024-02-15T08:15:37;8.90;;;5.70;;
75209;SDS011;63796;53.136;14.882;2024-02-15T08:18:44;8.00;;;5.60;;
75209;SDS011;63796;53.136;14.882;2024-02-15T08:21:52;7.20;;;5.00;;
75209;SDS011;63796;53.136;14.882;2024-02-15T08:24:59;10.00;;;5.30;;
75209;SDS011;63796;53.136;14.882;2024-02-15T08:28:07;8.20;;;6.10;;
75209;SDS011;63796;53.136;14.882;2024-02-15T08:31:14;7.20;;;5.00;;
75209;SDS011;63796;53.136;14.882;2024-02-15T08:34:26;7.90;;;5.50;;
75209;SDS011;63796;53.136;14.882;2024-02-15T08:37:37;9.10;;;5.10;;
75209;SDS011;63796;53.136;14.882;2024-02-15T08:40:07;8.70;;;5.60;;
75209;SDS011;63796;53.136;14.882;2024-02-15T08:42:42;8.90;;;5.20;;
75209;SDS011;63796;53.136;14.882;2024-02-15T08:45:12;7.50;;;5.20;;
75209;SDS011;63796;53.136;14.882;2024-02-15T08:47:41;9.00;;;6.00;;
75209;SDS011;63796;53.136;14.882;2024-02-15T08:50:10;9.80;;;5.40;;
75209;SDS011;63796;53.136;14.882;2024-02-15T08:53:18;8.90;;;5.70;;
75209;SDS011;63796;53.136;14.882;2024-02-15T08:56:28;9.80;;;5.60;;
75209;SDS011;63796;53.136;14.882;2024-02-15T08:59:36;10.50;;;6.20;;
75209;SDS011;63796;53.136;14.882;2024-02-15T09:02:43;9.50;;;6.30;;
75209;SDS011;63796;53.136;14.882;2024-02-15T09:05:51;11.30;;;6.20;;
75209;SDS011;63796;53.136;14.882;2024-02-15T09:08:59;10.70;;;6.20;;
75209;SDS011;63796;53.136;14.882;2024-02-15T09:12:08;11.70;;;6.20;;
75209;SDS011;63796;53.136;14.882;2024-02-15T09:15:16;13.10;;;6.40;;
75209;SDS011;63796;53.136;14.882;2024-02-15T09:18:26;11.90;;;6.20;;
75209;SDS011;63796;53.136;14.882;2024-02-15T09:21:33;12.30;;;6.70;;
75209;SDS011;63796;53.136;14.882;2024-02-15T09:24:03;11.80;;;7.20;;
75209;SDS011;63796;53.136;14.882;2024-02-15T09:27:11;10.90;;;6.40;;
75209;SDS011;63796;53.136;14.882;2024-02-15T09:30:19;10.30;;;5.80;;
75209;SDS011;63796;53.136;14.882;2024-02-15T09:33:26;9.30;;;5.40;;
75209;SDS011;63796;53.136;14.882;2024-02-15T09:36:35;8.50;;;5.50;;
75209;SDS011;63796;53.136;14.882;2024-02-15T09:39:42;7.00;;;5.10;;
75209;SDS011;63796;53.136;14.882;2024-02-15T09:42:50;8.20;;;5.50;;
75209;SDS011;63796;53.136;14.882;2024-02-15T09:45:57;10.30;;;5.40;;
75209;SDS011;63796;53.136;14.882;2024-02-15T09:49:04;9.60;;;5.40;;
75209;SDS011;63796;53.136;14.882;2024-02-15T09:52:12;7.50;;;5.10;;
75209;SDS011;63796;53.136;14.882;2024-02-15T09:55:22;9.10;;;5.30;;
75209;SDS011;63796;53.136;14.882;2024-02-15T09:58:30;8.10;;;5.20;;
75209;SDS011;63796;53.136;14.882;2024-02-15T10:01:38;12.50;;;5.90;;
75209;SDS011;63796;53.136;14.882;2024-02-15T10:04:46;10.00;;;5.80;;
75209;SDS011;63796;53.136;14.882;2024-02-15T10:07:54;8.50;;;5.70;;
75209;SDS011;63796;53.136;14.882;2024-02-15T10:11:08;11.00;;;5.70;;
75209;SDS011;63796;53.136;14.882;2024-02-15T10:14:16;12.00;;;6.20;;
75209;SDS011;63796;53.136;14.882;2024-02-15T10:17:23;11.70;;;5.60;;
75209;SDS011;63796;53.136;14.882;2024-02-15T10:20:31;10.70;;;6.10;;
75209;SDS011;63796;53.136;14.882;2024-02-15T10:23:38;9.80;;;6.00;;
75209;SDS011;63796;53.136;14.882;2024-02-15T10:26:48;9.70;;;6.10;;
75209;SDS011;63796;53.136;14.882;2024-02-15T10:30:22;8.60;;;5.50;;
75209;SDS011;63796;53.136;14.882;2024-02-15T10:33:31;9.70;;;5.80;;
75209;SDS011;63796;53.136;14.882;2024-02-15T10:36:38;9.00;;;6.00;;
75209;SDS011;63796;53.136;14.882;2024-02-15T10:39:46;9.10;;;6.10;;
75209;SDS011;63796;53.136;14.882;2024-02-15T10:42:53;8.60;;;5.70;;
75209;SDS011;63796;53.136;14.882;2024-02-15T10:46:01;9.60;;;5.50;;
75209;SDS011;63796;53.136;14.882;2024-02-15T10:49:09;10.20;;;6.00;;
75209;SDS011;63796;53.136;14.882;2024-02-15T10:52:18;10.80;;;6.50;;
75209;SDS011;63796;53.136;14.882;2024-02-15T10:58:50;10.70;;;7.20;;
75209;SDS011;63796;53.136;14.882;2024-02-15T11:01:59;11.10;;;6.10;;
75209;SDS011;63796;53.136;14.882;2024-02-15T11:05:08;11.30;;;6.50;;
75209;SDS011;63796;53.136;14.882;2024-02-15T11:08:18;11.30;;;6.80;;
75209;SDS011;63796;53.136;14.882;2024-02-15T11:11:26;11.40;;;7.10;;
75209;SDS011;63796;53.136;14.882;2024-02-15T11:14:34;10.50;;;7.20;;
75209;SDS011;63796;53.136;14.882;2024-02-15T11:17:45;13.20;;;6.70;;
75209;SDS011;63796;53.136;14.882;2024-02-15T11:20:53;11.70;;;7.40;;
75209;SDS011;63796;53.136;14.882;2024-02-15T11:24:30;10.60;;;6.80;;
75209;SDS011;63796;53.136;14.882;2024-02-15T11:27:40;8.50;;;6.50;;
75209;SDS011;63796;53.136;14.882;2024-02-15T11:30:50;9.00;;;7.30;;
75209;SDS011;63796;53.136;14.882;2024-02-15T11:33:58;12.00;;;7.10;;
75209;SDS011;63796;53.136;14.882;2024-02-15T11:37:07;10.00;;;6.50;;
75209;SDS011;63796;53.136;14.882;2024-02-15T11:40:22;8.60;;;5.90;;
75209;SDS011;63796;53.136;14.882;2024-02-15T11:46:53;8.50;;;6.30;;
75209;SDS011;63796;53.136;14.882;2024-02-15T11:50:01;10.10;;;6.30;;
75209;SDS011;63796;53.136;14.882;2024-02-15T11:53:08;9.60;;;6.60;;
75209;SDS011;63796;53.136;14.882;2024-02-15T11:56:18;7.50;;;6.20;;
75209;SDS011;63796;53.136;14.882;2024-02-15T11:59:30;8.30;;;6.50;;
75209;SDS011;63796;53.136;14.882;2024-02-15T12:02:40;9.00;;;6.50;;
75209;SDS011;63796;53.136;14.882;2024-02-15T12:05:47;9.60;;;6.90;;
75209;SDS011;63796;53.136;14.882;2024-02-15T12:08:55;8.40;;;5.80;;
75209;SDS011;63796;53.136;14.882;2024-02-15T12:12:01;31.60;;;14.80;;
75209;SDS011;63796;53.136;14.882;2024-02-15T12:15:07;11.80;;;6.90;;
75209;SDS011;63796;53.136;14.882;2024-02-15T12:18:17;11.00;;;7.20;;
75209;SDS011;63796;53.136;14.882;2024-02-15T12:21:25;11.00;;;6.90;;
75209;SDS011;63796;53.136;14.882;2024-02-15T12:24:32;10.30;;;6.80;;
75209;SDS011;63796;53.136;14.882;2024-02-15T12:27:43;17.90;;;9.40;;
75209;SDS011;63796;53.136;14.882;2024-02-15T12:31:10;10.20;;;6.80;;
75209;SDS011;63796;53.136;14.882;2024-02-15T12:34:20;12.30;;;7.20;;
75209;SDS011;63796;53.136;14.882;2024-02-15T12:37:31;10.20;;;6.70;;
75209;SDS011;63796;53.136;14.882;2024-02-15T12:40:39;9.60;;;6.20;;
75209;SDS011;63796;53.136;14.882;2024-02-15T12:43:51;12.40;;;7.30;;
75209;SDS011;63796;53.136;14.882;2024-02-15T12:46:59;11.10;;;7.90;;
75209;SDS011;63796;53.136;14.882;2024-02-15T12:50:14;9.50;;;7.00;;
75209;SDS011;63796;53.136;14.882;2024-02-15T12:53:22;16.20;;;8.90;;
75209;SDS011;63796;53.136;14.882;2024-02-15T12:56:29;9.00;;;6.00;;
75209;SDS011;63796;53.136;14.882;2024-02-15T12:59:37;9.80;;;6.70;;
75209;SDS011;63796;53.136;14.882;2024-02-15T13:02:48;15.50;;;10.20;;
75209;SDS011;63796;53.136;14.882;2024-02-15T13:05:56;11.80;;;7.70;;
75209;SDS011;63796;53.136;14.882;2024-02-15T13:09:03;12.50;;;7.30;;
75209;SDS011;63796;53.136;14.882;2024-02-15T13:12:11;13.80;;;7.70;;
75209;SDS011;63796;53.136;14.882;2024-02-15T13:15:18;18.30;;;10.60;;
75209;SDS011;63796;53.136;14.882;2024-02-15T13:18:28;11.10;;;7.00;;
75209;SDS011;63796;53.136;14.882;2024-02-15T13:21:35;18.20;;;9.70;;
75209;SDS011;63796;53.136;14.882;2024-02-15T13:24:44;24.90;;;12.70;;
75209;SDS011;63796;53.136;14.882;2024-02-15T13:27:51;18.10;;;10.10;;
75209;SDS011;63796;53.136;14.882;2024-02-15T13:31:01;13.80;;;7.60;;
75209;SDS011;63796;53.136;14.882;2024-02-15T13:34:08;10.40;;;7.30;;
75209;SDS011;63796;53.136;14.882;2024-02-15T13:37:16;13.20;;;7.30;;
75209;SDS011;63796;53.136;14.882;2024-02-15T13:40:24;11.10;;;7.00;;
75209;SDS011;63796;53.136;14.882;2024-02-15T13:43:32;13.90;;;8.10;;
75209;SDS011;63796;53.136;14.882;2024-02-15T13:46:40;15.10;;;7.10;;
75209;SDS011;63796;53.136;14.882;2024-02-15T13:49:47;11.00;;;7.00;;
75209;SDS011;63796;53.136;14.882;2024-02-15T13:52:54;21.70;;;11.80;;
75209;SDS011;63796;53.136;14.882;2024-02-15T13:56:02;13.10;;;7.80;;
75209;SDS011;63796;53.136;14.882;2024-02-15T13:59:10;10.30;;;6.90;;
75209;SDS011;63796;53.136;14.882;2024-02-15T14:02:19;10.20;;;6.90;;
75209;SDS011;63796;53.136;14.882;2024-02-15T14:05:28;10.50;;;7.50;;
75209;SDS011;63796;53.136;14.882;2024-02-15T14:08:36;10.40;;;7.40;;
75209;SDS011;63796;53.136;14.882;2024-02-15T14:11:43;10.00;;;6.80;;
75209;SDS011;63796;53.136;14.882;2024-02-15T14:14:53;10.70;;;6.80;;
75209;SDS011;63796;53.136;14.882;2024-02-15T14:18:00;12.60;;;7.50;;
75209;SDS011;63796;53.136;14.882;2024-02-15T14:21:08;11.20;;;7.60;;
75209;SDS011;63796;53.136;14.882;2024-02-15T14:23:37;14.30;;;7.70;;
75209;SDS011;63796;53.136;14.882;2024-02-15T14:26:45;11.10;;;6.90;;
75209;SDS011;63796;53.136;14.882;2024-02-15T14:29:52;12.70;;;7.30;;
75209;SDS011;63796;53.136;14.882;2024-02-15T14:32:39;10.80;;;7.20;;
75209;SDS011;63796;53.136;14.882;2024-02-15T14:35:51;12.40;;;7.30;;
75209;SDS011;63796;53.136;14.882;2024-02-15T14:38:58;16.00;;;8.20;;
75209;SDS011;63796;53.136;14.882;2024-02-15T14:42:05;11.50;;;6.90;;
75209;SDS011;63796;53.136;14.882;2024-02-15T14:45:15;13.20;;;7.50;;
75209;SDS011;63796;53.136;14.882;2024-02-15T14:48:22;12.40;;;7.40;;
75209;SDS011;63796;53.136;14.882;2024-02-15T14:51:34;15.40;;;7.70;;
75209;SDS011;63796;53.136;14.882;2024-02-15T14:54:41;10.10;;;6.70;;
75209;SDS011;63796;53.136;14.882;2024-02-15T14:57:53;9.00;;;6.40;;
75209;SDS011;63796;53.136;14.882;2024-02-15T15:01:00;10.20;;;6.80;;
75209;SDS011;63796;53.136;14.882;2024-02-15T15:04:08;10.00;;;6.40;;
75209;SDS011;63796;53.136;14.882;2024-02-15T15:07:15;14.00;;;6.60;;
75209;SDS011;63796;53.136;14.882;2024-02-15T15:10:21;9.40;;;6.90;;
75209;SDS011;63796;53.136;14.882;2024-02-15T15:13:27;8.50;;;6.10;;
75209;SDS011;63796;53.136;14.882;2024-02-15T15:16:35;7.90;;;5.90;;
75209;SDS011;63796;53.136;14.882;2024-02-15T15:19:43;9.50;;;6.50;;
75209;SDS011;63796;53.136;14.882;2024-02-15T15:22:50;9.70;;;6.20;;
75209;SDS011;63796;53.136;14.882;2024-02-15T15:26:00;6.90;;;5.80;;
75209;SDS011;63796;53.136;14.882;2024-02-15T15:29:11;6.30;;;5.30;;
75209;SDS011;63796;53.136;14.882;2024-02-15T15:32:18;8.00;;;5.20;;
75209;SDS011;63796;53.136;14.882;2024-02-15T15:35:26;9.60;;;6.00;;
75209;SDS011;63796;53.136;14.882;2024-02-15T15:38:34;11.20;;;6.90;;
75209;SDS011;63796;53.136;14.882;2024-02-15T15:41:45;13.40;;;6.90;;
75209;SDS011;63796;53.136;14.882;2024-02-15T15:44:52;9.80;;;6.70;;
75209;SDS011;63796;53.136;14.882;2024-02-15T15:47:20;11.10;;;7.00;;
75209;SDS011;63796;53.136;14.882;2024-02-15T15:50:27;9.50;;;7.00;;
75209;SDS011;63796;53.136;14.882;2024-02-15T15:53:41;10.60;;;6.70;;
75209;SDS011;63796;53.136;14.882;2024-02-15T15:56:48;11.00;;;7.40;;
75209;SDS011;63796;53.136;14.882;2024-02-15T15:59:58;14.50;;;7.10;;
75209;SDS011;63796;53.136;14.882;2024-02-15T16:03:06;10.50;;;7.20;;
75209;SDS011;63796;53.136;14.882;2024-02-15T16:06:13;11.10;;;7.00;;
75209;SDS011;63796;53.136;14.882;2024-02-15T16:09:21;11.70;;;6.50;;
75209;SDS011;63796;53.136;14.882;2024-02-15T16:12:29;11.40;;;6.10;;
75209;SDS011;63796;53.136;14.882;2024-02-15T16:15:56;11.50;;;6.30;;
75209;SDS011;63796;53.136;14.882;2024-02-15T16:19:44;11.10;;;6.50;;
75209;SDS011;63796;53.136;14.882;2024-02-15T16:23:11;9.10;;;6.40;;
75209;SDS011;63796;53.136;14.882;2024-02-15T16:26:18;9.00;;;6.40;;
75209;SDS011;63796;53.136;14.882;2024-02-15T16:29:25;8.90;;;6.10;;
75209;SDS011;63796;53.136;14.882;2024-02-15T16:32:37;7.70;;;6.30;;
75209;SDS011;63796;53.136;14.882;2024-02-15T16:35:44;12.30;;;7.20;;
75209;SDS011;63796;53.136;14.882;2024-02-15T16:38:52;14.00;;;8.60;;
75209;SDS011;63796;53.136;14.882;2024-02-15T16:41:59;11.10;;;8.60;;
75209;SDS011;63796;53.136;14.882;2024-02-15T16:45:08;15.80;;;9.20;;
75209;SDS011;63796;53.136;14.882;2024-02-15T16:48:15;15.60;;;9.00;;
75209;SDS011;63796;53.136;14.882;2024-02-15T16:51:23;12.80;;;8.60;;
75209;SDS011;63796;53.136;14.882;2024-02-15T16:54:30;15.80;;;8.50;;
75209;SDS011;63796;53.136;14.882;2024-02-15T16:57:38;15.10;;;8.90;;
75209;SDS011;63796;53.136;14.882;2024-02-15T17:00:45;13.70;;;8.50;;
75209;SDS011;63796;53.136;14.882;2024-02-15T17:03:56;16.50;;;9.60;;
75209;SDS011;63796;53.136;14.882;2024-02-15T17:07:03;27.40;;;14.10;;
75209;SDS011;63796;53.136;14.882;2024-02-15T17:10:11;25.50;;;16.40;;
75209;SDS011;63796;53.136;14.882;2024-02-15T17:13:18;24.00;;;15.40;;
75209;SDS011;63796;53.136;14.882;2024-02-15T17:16:26;22.80;;;14.20;;
75209;SDS011;63796;53.136;14.882;2024-02-15T17:19:33;19.20;;;11.90;;
75209;SDS011;63796;53.136;14.882;2024-02-15T17:22:41;16.00;;;11.20;;
75209;SDS011;63796;53.136;14.882;2024-02-15T17:25:49;15.70;;;11.30;;
75209;SDS011;63796;53.136;14.882;2024-02-15T17:28:47;13.10;;;9.60;;
75209;SDS011;63796;53.136;14.882;2024-02-15T17:32:34;15.60;;;10.00;;
75209;SDS011;63796;53.136;14.882;2024-02-15T17:36:21;17.20;;;9.10;;
75209;SDS011;63796;53.136;14.882;2024-02-15T17:40:08;15.40;;;9.20;;
75209;SDS011;63796;53.136;14.882;2024-02-15T17:43:59;13.90;;;9.00;;
75209;SDS011;63796;53.136;14.882;2024-02-15T17:47:46;17.00;;;11.40;;
75209;SDS011;63796;53.136;14.882;2024-02-15T17:51:36;17.40;;;10.80;;
75209;SDS011;63796;53.136;14.882;2024-02-15T17:55:23;18.20;;;11.50;;
75209;SDS011;63796;53.136;14.882;2024-02-15T17:59:10;18.60;;;11.80;;
75209;SDS011;63796;53.136;14.882;2024-02-15T18:02:33;21.20;;;12.80;;
75209;SDS011;63796;53.136;14.882;2024-02-15T18:05:41;22.90;;;13.60;;
75209;SDS011;63796;53.136;14.882;2024-02-15T18:08:48;21.00;;;12.10;;
75209;SDS011;63796;53.136;14.882;2024-02-15T18:11:55;20.80;;;12.60;;
75209;SDS011;63796;53.136;14.882;2024-02-15T18:15:03;20.30;;;12.50;;
75209;SDS011;63796;53.136;14.882;2024-02-15T18:18:13;26.10;;;13.90;;
75209;SDS011;63796;53.136;14.882;2024-02-15T18:21:20;26.50;;;14.70;;
75209;SDS011;63796;53.136;14.882;2024-02-15T18:24:32;29.50;;;14.50;;
75209;SDS011;63796;53.136;14.882;2024-02-15T18:27:39;20.90;;;12.70;;